sensor_id;sensor_type;location;lat;lon;timestamp;pressure;altitude;pressure_sealevel;temperature;humidity
10638;BME280;47007;49.252;8.904;2023-06-10T00:00:22;99413.97;;;20.07;95.96
10638;BME280;47007;49.252;8.904;2023-06-10T00:01:04;99383.97;;;19.93;95.70
10638;BME280;47007;49.252;8.904;2023-06-10T00:01:46;99405.91;;;20.07;95.63
10638;BME280;47007;49.252;8.904;2023-06-10T00:02:28;99349.56;;;19.63;98.83
10638;BME280;47007;49.252;8.904;2023-06-10T00:03:10;99408.00;;;20.00;98.68
10638;BME280;47007;49.252;8.904;2023-06-10T00:03:52;99406.31;;;19.94;99.98
10638;BME280;47007;49.252;8.904;2023-06-10T00:04:34;99404.41;;;19.89;100.00
10638;BME280;47007;49.252;8.904;2023-06-10T00:05:17;99411.91;;;19.87;99.53
10638;BME280;47007;49.252;8.904;2023-06-10T00:06:02;99411.09;;;19.87;99.05
10638;BME280;47007;49.252;8.904;2023-06-10T00:06:46;99419.97;;;19.87;99.10
10638;BME280;47007;49.252;8.904;2023-06-10T00:07:29;99345.38;;;19.51;99.16
10638;BME280;47007;49.252;8.904;2023-06-10T00:08:11;99406.28;;;19.89;98.78
10638;BME280;47007;49.252;8.904;2023-06-10T00:08:53;99401.16;;;19.87;98.66
10638;BME280;47007;49.252;8.904;2023-06-10T00:09:35;99404.66;;;19.88;98.50
10638;BME280;47007;49.252;8.904;2023-06-10T00:10:18;99371.63;;;19.65;98.39
10638;BME280;47007;49.252;8.904;2023-06-10T00:11:00;99406.28;;;19.89;98.51
10638;BME280;47007;49.252;8.904;2023-06-10T00:11:42;99405.47;;;19.88;98.59
10638;BME280;47007;49.252;8.904;2023-06-10T00:12:23;99406.53;;;19.87;98.70
10638;BME280;47007;49.252;8.904;2023-06-10T00:13:06;99411.09;;;19.87;98.75
10638;BME280;47007;49.252;8.904;2023-06-10T00:13:51;99403.28;;;19.85;98.81
10638;BME280;47007;49.252;8.904;2023-06-10T00:14:34;99398.09;;;19.79;99.19
10638;BME280;47007;49.252;8.904;2023-06-10T00:15:16;99414.53;;;19.82;99.04
10638;BME280;47007;49.252;8.904;2023-06-10T00:16:01;99396.22;;;19.79;99.02
10638;BME280;47007;49.252;8.904;2023-06-10T00:16:43;99402.97;;;19.82;98.83
10638;BME280;47007;49.252;8.904;2023-06-10T00:17:26;99412.09;;;19.81;99.02
10638;BME280;47007;49.252;8.904;2023-06-10T00:18:10;99414.22;;;19.79;98.99
10638;BME280;47007;49.252;8.904;2023-06-10T00:18:52;99393.41;;;19.69;99.36
10638;BME280;47007;49.252;8.904;2023-06-10T00:19:33;99408.31;;;19.77;99.54
10638;BME280;47007;49.252;8.904;2023-06-10T00:20:16;99404.81;;;19.76;99.41
10638;BME280;47007;49.252;8.904;2023-06-10T00:20:58;99406.13;;;19.73;99.72
10638;BME280;47007;49.252;8.904;2023-06-10T00:21:45;99399.38;;;19.71;99.95
10638;BME280;47007;49.252;8.904;2023-06-10T00:22:27;99400.38;;;19.65;100.00
10638;BME280;47007;49.252;8.904;2023-06-10T00:23:11;99403.91;;;19.65;100.00
10638;BME280;47007;49.252;8.904;2023-06-10T00:23:53;99380.34;;;19.51;100.00
10638;BME280;47007;49.252;8.904;2023-06-10T00:24:34;99413.56;;;19.66;100.00
10638;BME280;47007;49.252;8.904;2023-06-10T00:25:16;99394.63;;;19.56;100.00
10638;BME280;47007;49.252;8.904;2023-06-10T00:25:59;99407.88;;;19.63;100.00
10638;BME280;47007;49.252;8.904;2023-06-10T00:26:41;99399.75;;;19.58;100.00
10638;BME280;47007;49.252;8.904;2023-06-10T00:27:24;99403.81;;;19.60;100.00
10638;BME280;47007;49.252;8.904;2023-06-10T00:28:06;99342.88;;;19.22;100.00
10638;BME280;47007;49.252;8.904;2023-06-10T00:28:48;99408.63;;;19.58;100.00
10638;BME280;47007;49.252;8.904;2023-06-10T00:29:29;99413.19;;;19.58;100.00
10638;BME280;47007;49.252;8.904;2023-06-10T00:30:13;99409.94;;;19.56;100.00
10638;BME280;47007;49.252;8.904;2023-06-10T00:30:54;99403.75;;;19.55;100.00
10638;BME280;47007;49.252;8.904;2023-06-10T00:31:39;99410.19;;;19.54;100.00
10638;BME280;47007;49.252;8.904;2023-06-10T00:32:21;99383.63;;;19.36;100.00
10638;BME280;47007;49.252;8.904;2023-06-10T00:33:03;99394.97;;;19.43;100.00
10638;BME280;47007;49.252;8.904;2023-06-10T00:33:45;99410.97;;;19.50;100.00
10638;BME280;47007;49.252;8.904;2023-06-10T00:34:26;99388.69;;;19.32;100.00
10638;BME280;47007;49.252;8.904;2023-06-10T00:35:08;99395.75;;;19.38;100.00
10638;BME280;47007;49.252;8.904;2023-06-10T00:35:50;99403.84;;;19.44;100.00
10638;BME280;47007;49.252;8.904;2023-06-10T00:36:32;99398.69;;;19.37;100.00
10638;BME280;47007;49.252;8.904;2023-06-10T00:37:14;99400.34;;;19.43;100.00
10638;BME280;47007;49.252;8.904;2023-06-10T00:37:56;99400.31;;;19.38;100.00
10638;BME280;47007;49.252;8.904;2023-06-10T00:38:38;99405.16;;;19.41;100.00
10638;BME280;47007;49.252;8.904;2023-06-10T00:39:23;99407.31;;;19.39;100.00
10638;BME280;47007;49.252;8.904;2023-06-10T00:40:05;99394.53;;;19.29;100.00
10638;BME280;47007;49.252;8.904;2023-06-10T00:40:47;99406.75;;;19.37;100.00
10638;BME280;47007;49.252;8.904;2023-06-10T00:41:29;99367.81;;;19.18;100.00
10638;BME280;47007;49.252;8.904;2023-06-10T00:42:11;99407.00;;;19.35;100.00
10638;BME280;47007;49.252;8.904;2023-06-10T00:42:52;99388.88;;;19.26;100.00
10638;BME280;47007;49.252;8.904;2023-06-10T00:43:35;99399.66;;;19.31;100.00
10638;BME280;47007;49.252;8.904;2023-06-10T00:44:17;99391.03;;;19.29;100.00
10638;BME280;47007;49.252;8.904;2023-06-10T00:44:59;99387.75;;;19.22;100.00
10638;BME280;47007;49.252;8.904;2023-06-10T00:45:40;99408.56;;;19.31;100.00
10638;BME280;47007;49.252;8.904;2023-06-10T00:46:23;99381.75;;;19.15;100.00
10638;BME280;47007;49.252;8.904;2023-06-10T00:47:07;99401.00;;;19.28;100.00
10638;BME280;47007;49.252;8.904;2023-06-10T00:47:49;99392.31;;;19.21;100.00
10638;BME280;47007;49.252;8.904;2023-06-10T00:48:31;99401.50;;;19.25;100.00
10638;BME280;47007;49.252;8.904;2023-06-10T00:49:12;99399.88;;;19.24;100.00
10638;BME280;47007;49.252;8.904;2023-06-10T00:49:54;99395.47;;;19.18;100.00
10638;BME280;47007;49.252;8.904;2023-06-10T00:50:38;99409.47;;;19.20;100.00
10638;BME280;47007;49.252;8.904;2023-06-10T00:51:21;99407.28;;;19.17;100.00
10638;BME280;47007;49.252;8.904;2023-06-10T00:52:04;99403.78;;;19.17;100.00
10638;BME280;47007;49.252;8.904;2023-06-10T00:52:47;99384.28;;;19.05;100.00
10638;BME280;47007;49.252;8.904;2023-06-10T00:53:30;99404.31;;;19.14;100.00
10638;BME280;47007;49.252;8.904;2023-06-10T00:54:12;99401.06;;;19.12;100.00
10638;BME280;47007;49.252;8.904;2023-06-10T00:54:55;99381.56;;;18.99;100.00
10638;BME280;47007;49.252;8.904;2023-06-10T00:55:37;99405.63;;;19.11;100.00
10638;BME280;47007;49.252;8.904;2023-06-10T00:56:20;99403.16;;;19.10;100.00
10638;BME280;47007;49.252;8.904;2023-06-10T00:57:02;99402.59;;;19.08;100.00
10638;BME280;47007;49.252;8.904;2023-06-10T00:57:45;99405.28;;;19.08;100.00
10638;BME280;47007;49.252;8.904;2023-06-10T00:58:27;99403.66;;;19.07;100.00
10638;BME280;47007;49.252;8.904;2023-06-10T00:59:09;99403.66;;;19.07;100.00
10638;BME280;47007;49.252;8.904;2023-06-10T00:59:51;99387.09;;;18.93;100.00
10638;BME280;47007;49.252;8.904;2023-06-10T01:00:32;99340.78;;;18.64;100.00
10638;BME280;47007;49.252;8.904;2023-06-10T01:01:16;99404.97;;;19.04;100.00
10638;BME280;47007;49.252;8.904;2023-06-10T01:01:59;99409.56;;;19.04;100.00
10638;BME280;47007;49.252;8.904;2023-06-10T01:02:43;99374.09;;;18.85;100.00
10638;BME280;47007;49.252;8.904;2023-06-10T01:03:25;99409.47;;;18.98;100.00
10638;BME280;47007;49.252;8.904;2023-06-10T01:04:08;99385.31;;;18.82;100.00
10638;BME280;47007;49.252;8.904;2023-06-10T01:04:52;99403.28;;;18.98;100.00
10638;BME280;47007;49.252;8.904;2023-06-10T01:05:35;99405.16;;;18.97;100.00
10638;BME280;47007;49.252;8.904;2023-06-10T01:07:38;99401.34;;;18.93;100.00
10638;BME280;47007;49.252;8.904;2023-06-10T01:08:40;99396.19;;;18.92;100.00
10638;BME280;47007;49.252;8.904;2023-06-10T01:09:38;99400.22;;;18.89;100.00
10638;BME280;47007;49.252;8.904;2023-06-10T01:10:36;99401.84;;;18.90;100.00
10638;BME280;47007;49.252;8.904;2023-06-10T01:11:23;99399.66;;;18.87;100.00
10638;BME280;47007;49.252;8.904;2023-06-10T01:13:02;99406.88;;;18.87;100.00
10638;BME280;47007;49.252;8.904;2023-06-10T01:13:45;99409.00;;;18.85;100.00
10638;BME280;47007;49.252;8.904;2023-06-10T01:14:28;99410.31;;;18.82;100.00
10638;BME280;47007;49.252;8.904;2023-06-10T01:15:10;99414.88;;;18.82;100.00
10638;BME280;47007;49.252;8.904;2023-06-10T01:15:53;99390.22;;;18.68;100.00
10638;BME280;47007;49.252;8.904;2023-06-10T01:16:38;99394.63;;;18.74;100.00
10638;BME280;47007;49.252;8.904;2023-06-10T01:17:24;99405.75;;;18.83;100.00
10638;BME280;47007;49.252;8.904;2023-06-10T01:18:10;99409.25;;;18.83;100.00
10638;BME280;47007;49.252;8.904;2023-06-10T01:18:56;99410.88;;;18.84;100.00
10638;BME280;47007;49.252;8.904;2023-06-10T01:19:39;99406.56;;;18.83;100.00
10638;BME280;47007;49.252;8.904;2023-06-10T01:20:22;99414.63;;;18.83;100.00
10638;BME280;47007;49.252;8.904;2023-06-10T01:21:04;99402.19;;;18.77;100.00
10638;BME280;47007;49.252;8.904;2023-06-10T01:21:45;99348.44;;;18.39;100.00
10638;BME280;47007;49.252;8.904;2023-06-10T01:22:32;99411.78;;;18.73;100.00
10638;BME280;47007;49.252;8.904;2023-06-10T01:23:17;99408.47;;;18.66;100.00
10638;BME280;47007;49.252;8.904;2023-06-10T01:23:59;99392.69;;;18.53;100.00
10638;BME280;47007;49.252;8.904;2023-06-10T01:24:41;99401.22;;;18.50;100.00
10638;BME280;47007;49.252;8.904;2023-06-10T01:25:26;99400.81;;;18.41;100.00
10638;BME280;47007;49.252;8.904;2023-06-10T01:26:11;99387.16;;;18.26;100.00
10638;BME280;47007;49.252;8.904;2023-06-10T01:26:55;99391.84;;;18.19;100.00
10638;BME280;47007;49.252;8.904;2023-06-10T01:27:40;99389.66;;;18.16;100.00
10638;BME280;47007;49.252;8.904;2023-06-10T01:28:31;99397.63;;;18.11;100.00
10638;BME280;47007;49.252;8.904;2023-06-10T01:29:24;99367.44;;;17.87;100.00
10638;BME280;47007;49.252;8.904;2023-06-10T01:30:17;99393.72;;;18.02;100.00
10638;BME280;47007;49.252;8.904;2023-06-10T01:31:07;99397.91;;;17.98;100.00
10638;BME280;47007;49.252;8.904;2023-06-10T01:31:56;99398.16;;;17.96;100.00
10638;BME280;47007;49.252;8.904;2023-06-10T01:32:45;99387.03;;;17.87;100.00
10638;BME280;47007;49.252;8.904;2023-06-10T01:33:34;99388.41;;;17.90;100.00
10638;BME280;47007;49.252;8.904;2023-06-10T01:34:18;99400.78;;;17.91;100.00
10638;BME280;47007;49.252;8.904;2023-06-10T01:35:02;99397.50;;;17.89;100.00
10638;BME280;47007;49.252;8.904;2023-06-10T01:35:44;99386.91;;;17.82;100.00
10638;BME280;47007;49.252;8.904;2023-06-10T01:36:28;99401.72;;;17.85;100.00
10638;BME280;47007;49.252;8.904;2023-06-10T01:37:13;99396.81;;;17.82;100.00
10638;BME280;47007;49.252;8.904;2023-06-10T01:37:58;99383.25;;;17.72;100.00
10638;BME280;47007;49.252;8.904;2023-06-10T01:38:43;99392.28;;;17.82;100.00
10638;BME280;47007;49.252;8.904;2023-06-10T01:39:29;99393.59;;;17.80;100.00
10638;BME280;47007;49.252;8.904;2023-06-10T01:40:11;99377.31;;;17.70;100.00
10638;BME280;47007;49.252;8.904;2023-06-10T01:40:53;99383.72;;;17.69;100.00
10638;BME280;47007;49.252;8.904;2023-06-10T01:41:37;99386.03;;;17.77;100.00
10638;BME280;47007;49.252;8.904;2023-06-10T01:42:20;99394.72;;;17.84;100.00
10638;BME280;47007;49.252;8.904;2023-06-10T01:43:02;99395.78;;;17.83;100.00
10638;BME280;47007;49.252;8.904;2023-06-10T01:43:45;99387.31;;;17.74;100.00
10638;BME280;47007;49.252;8.904;2023-06-10T01:44:27;99396.59;;;17.83;100.00
10638;BME280;47007;49.252;8.904;2023-06-10T01:45:10;99402.28;;;17.87;100.00
10638;BME280;47007;49.252;8.904;2023-06-10T01:45:51;99375.53;;;17.75;100.00
10638;BME280;47007;49.252;8.904;2023-06-10T01:46:33;99397.50;;;17.89;100.00
10638;BME280;47007;49.252;8.904;2023-06-10T01:47:15;99403.69;;;17.89;100.00
10638;BME280;47007;49.252;8.904;2023-06-10T01:47:56;99398.31;;;17.89;100.00
10638;BME280;47007;49.252;8.904;2023-06-10T01:48:41;99388.25;;;17.80;100.00
10638;BME280;47007;49.252;8.904;2023-06-10T01:49:23;99400.66;;;17.86;100.00
10638;BME280;47007;49.252;8.904;2023-06-10T01:50:06;99391.22;;;17.83;100.00
10638;BME280;47007;49.252;8.904;2023-06-10T01:50:49;99321.72;;;17.37;100.00
10638;BME280;47007;49.252;8.904;2023-06-10T01:51:31;99391.16;;;17.78;100.00
10638;BME280;47007;49.252;8.904;2023-06-10T01:52:14;99386.75;;;17.72;100.00
10638;BME280;47007;49.252;8.904;2023-06-10T01:52:57;99397.94;;;17.69;100.00
10638;BME280;47007;49.252;8.904;2023-06-10T01:53:41;99396.22;;;17.63;100.00
10638;BME280;47007;49.252;8.904;2023-06-10T01:54:23;99368.44;;;17.41;100.00
10638;BME280;47007;49.252;8.904;2023-06-10T01:55:05;99395.19;;;17.52;100.00
10638;BME280;47007;49.252;8.904;2023-06-10T01:55:47;99394.03;;;17.48;100.00
10638;BME280;47007;49.252;8.904;2023-06-10T01:56:30;99398.50;;;17.43;100.00
10638;BME280;47007;49.252;8.904;2023-06-10T01:57:12;99391.72;;;17.40;100.00
10638;BME280;47007;49.252;8.904;2023-06-10T01:57:53;99391.84;;;17.34;100.00
10638;BME280;47007;49.252;8.904;2023-06-10T01:58:35;99386.19;;;17.30;100.00
10638;BME280;47007;49.252;8.904;2023-06-10T01:59:17;99392.34;;;17.31;100.00
10638;BME280;47007;49.252;8.904;2023-06-10T01:59:59;99378.72;;;17.20;100.00
10638;BME280;47007;49.252;8.904;2023-06-10T02:00:41;99394.31;;;17.23;100.00
10638;BME280;47007;49.252;8.904;2023-06-10T02:01:23;99392.94;;;17.21;100.00
10638;BME280;47007;49.252;8.904;2023-06-10T02:02:05;99367.97;;;17.04;100.00
10638;BME280;47007;49.252;8.904;2023-06-10T02:02:47;99390.41;;;17.14;100.00
10638;BME280;47007;49.252;8.904;2023-06-10T02:03:29;99323.06;;;16.71;100.00
10638;BME280;47007;49.252;8.904;2023-06-10T02:04:11;99386.78;;;17.09;100.00
10638;BME280;47007;49.252;8.904;2023-06-10T02:04:52;99390.50;;;17.08;100.00
10638;BME280;47007;49.252;8.904;2023-06-10T02:05:35;99395.06;;;17.07;100.00
10638;BME280;47007;49.252;8.904;2023-06-10T02:06:16;99386.81;;;16.97;100.00
10638;BME280;47007;49.252;8.904;2023-06-10T02:06:58;99395.31;;;17.06;100.00
10638;BME280;47007;49.252;8.904;2023-06-10T02:07:40;99396.59;;;17.03;100.00
10638;BME280;47007;49.252;8.904;2023-06-10T02:08:22;99382.63;;;17.01;100.00
10638;BME280;47007;49.252;8.904;2023-06-10T02:09:03;99392.06;;;17.04;100.00
10638;BME280;47007;49.252;8.904;2023-06-10T02:09:45;99383.66;;;17.00;100.00
10638;BME280;47007;49.252;8.904;2023-06-10T02:10:27;99394.72;;;17.04;100.00
10638;BME280;47007;49.252;8.904;2023-06-10T02:11:08;99391.00;;;17.05;100.00
10638;BME280;47007;49.252;8.904;2023-06-10T02:11:50;99397.19;;;17.05;100.00
10638;BME280;47007;49.252;8.904;2023-06-10T02:12:32;99393.41;;;17.06;100.00
10638;BME280;47007;49.252;8.904;2023-06-10T02:13:13;99395.06;;;17.07;100.00
10638;BME280;47007;49.252;8.904;2023-06-10T02:13:55;99401.22;;;17.08;100.00
10638;BME280;47007;49.252;8.904;2023-06-10T02:14:37;99398.53;;;17.08;100.00
10638;BME280;47007;49.252;8.904;2023-06-10T02:15:18;99365.53;;;16.91;100.00
10638;BME280;47007;49.252;8.904;2023-06-10T02:16:01;99398.09;;;17.11;100.00
10638;BME280;47007;49.252;8.904;2023-06-10T02:16:43;99398.91;;;17.11;100.00
10638;BME280;47007;49.252;8.904;2023-06-10T02:17:27;99371.78;;;16.96;100.00
10638;BME280;47007;49.252;8.904;2023-06-10T02:18:09;99371.53;;;17.09;100.00
10638;BME280;47007;49.252;8.904;2023-06-10T02:18:52;99387.81;;;17.19;100.00
10638;BME280;47007;49.252;8.904;2023-06-10T02:19:33;99393.94;;;17.32;100.00
10638;BME280;47007;49.252;8.904;2023-06-10T02:20:18;99391.63;;;17.35;100.00
10638;BME280;47007;49.252;8.904;2023-06-10T02:21:00;99392.31;;;17.42;100.00
10638;BME280;47007;49.252;8.904;2023-06-10T02:21:42;99399.84;;;17.45;100.00
10638;BME280;47007;49.252;8.904;2023-06-10T02:22:24;99404.97;;;17.47;100.00
10638;BME280;47007;49.252;8.904;2023-06-10T02:23:05;99374.50;;;17.36;100.00
10638;BME280;47007;49.252;8.904;2023-06-10T02:23:47;99391.47;;;17.53;100.00
10638;BME280;47007;49.252;8.904;2023-06-10T02:24:29;99398.19;;;17.56;100.00
10638;BME280;47007;49.252;8.904;2023-06-10T02:25:10;99392.13;;;17.60;100.00
10638;BME280;47007;49.252;8.904;2023-06-10T02:25:52;99394.13;;;17.65;100.00
10638;BME280;47007;49.252;8.904;2023-06-10T02:26:34;99398.97;;;17.68;100.00
10638;BME280;47007;49.252;8.904;2023-06-10T02:27:18;99393.97;;;17.72;100.00
10638;BME280;47007;49.252;8.904;2023-06-10T02:28:00;99391.88;;;17.74;100.00
10638;BME280;47007;49.252;8.904;2023-06-10T02:28:43;99393.72;;;17.73;100.00
10638;BME280;47007;49.252;8.904;2023-06-10T02:29:24;99412.59;;;17.78;100.00
10638;BME280;47007;49.252;8.904;2023-06-10T02:30:07;99398.38;;;17.78;100.00
10638;BME280;47007;49.252;8.904;2023-06-10T02:30:51;99376.25;;;17.71;100.00
10638;BME280;47007;49.252;8.904;2023-06-10T02:31:34;99385.44;;;17.75;100.00
10638;BME280;47007;49.252;8.904;2023-06-10T02:32:18;99389.59;;;17.82;100.00
10638;BME280;47007;49.252;8.904;2023-06-10T02:32:59;99390.81;;;17.75;100.00
10638;BME280;47007;49.252;8.904;2023-06-10T02:33:42;99403.81;;;17.83;100.00
10638;BME280;47007;49.252;8.904;2023-06-10T02:34:24;99403.81;;;17.83;100.00
10638;BME280;47007;49.252;8.904;2023-06-10T02:35:06;99394.31;;;17.75;100.00
10638;BME280;47007;49.252;8.904;2023-06-10T02:35:48;99405.22;;;17.85;100.00
10638;BME280;47007;49.252;8.904;2023-06-10T02:36:30;99391.16;;;17.78;100.00
10638;BME280;47007;49.252;8.904;2023-06-10T02:37:13;99401.72;;;17.85;100.00
10638;BME280;47007;49.252;8.904;2023-06-10T02:37:54;99401.72;;;17.85;100.00
10638;BME280;47007;49.252;8.904;2023-06-10T02:38:36;99403.09;;;17.87;100.00
10638;BME280;47007;49.252;8.904;2023-06-10T02:39:18;99292.94;;;17.15;100.00
10638;BME280;47007;49.252;8.904;2023-06-10T02:40:01;99400.31;;;17.82;100.00
10638;BME280;47007;49.252;8.904;2023-06-10T02:40:43;99404.16;;;17.86;100.00
10638;BME280;47007;49.252;8.904;2023-06-10T02:41:26;99416.50;;;17.87;100.00
10638;BME280;47007;49.252;8.904;2023-06-10T02:42:11;99410.00;;;17.83;100.00
10638;BME280;47007;49.252;8.904;2023-06-10T02:42:53;99410.00;;;17.83;100.00
10638;BME280;47007;49.252;8.904;2023-06-10T02:43:35;99408.38;;;17.82;100.00
10638;BME280;47007;49.252;8.904;2023-06-10T02:44:20;99411.03;;;17.82;100.00
10638;BME280;47007;49.252;8.904;2023-06-10T02:45:03;99413.16;;;17.80;100.00
10638;BME280;47007;49.252;8.904;2023-06-10T02:45:51;99408.06;;;17.79;100.00
10638;BME280;47007;49.252;8.904;2023-06-10T02:46:33;99415.50;;;17.77;100.00
10638;BME280;47007;49.252;8.904;2023-06-10T02:47:18;99409.56;;;17.75;100.00
10638;BME280;47007;49.252;8.904;2023-06-10T02:48:00;99413.06;;;17.75;100.00
10638;BME280;47007;49.252;8.904;2023-06-10T02:48:43;99408.53;;;17.76;100.00
10638;BME280;47007;49.252;8.904;2023-06-10T02:49:27;99410.16;;;17.77;100.00
10638;BME280;47007;49.252;8.904;2023-06-10T02:50:13;99395.75;;;17.66;100.00
10638;BME280;47007;49.252;8.904;2023-06-10T02:51:05;99402.81;;;17.72;100.00
10638;BME280;47007;49.252;8.904;2023-06-10T02:51:52;99410.22;;;17.82;100.00
10638;BME280;47007;49.252;8.904;2023-06-10T02:52:36;99414.31;;;17.84;100.00
10638;BME280;47007;49.252;8.904;2023-06-10T02:53:19;99416.16;;;17.84;100.00
10638;BME280;47007;49.252;8.904;2023-06-10T02:54:07;99401.06;;;17.78;100.00
10638;BME280;47007;49.252;8.904;2023-06-10T02:54:49;99371.97;;;17.58;100.00
10638;BME280;47007;49.252;8.904;2023-06-10T02:55:30;99418.16;;;17.88;100.00
10638;BME280;47007;49.252;8.904;2023-06-10T02:56:17;99413.59;;;17.89;100.00
10638;BME280;47007;49.252;8.904;2023-06-10T02:56:58;99408.00;;;17.90;100.00
10638;BME280;47007;49.252;8.904;2023-06-10T02:57:42;99400.56;;;17.81;100.00
10638;BME280;47007;49.252;8.904;2023-06-10T02:58:24;99405.44;;;17.84;100.00
10638;BME280;47007;49.252;8.904;2023-06-10T02:59:07;99357.75;;;17.57;100.00
10638;BME280;47007;49.252;8.904;2023-06-10T02:59:49;99407.41;;;17.88;100.00
10638;BME280;47007;49.252;8.904;2023-06-10T03:00:32;99387.66;;;17.78;100.00
10638;BME280;47007;49.252;8.904;2023-06-10T03:01:14;99419.84;;;17.94;100.00
10638;BME280;47007;49.252;8.904;2023-06-10T03:02:29;99394.72;;;17.84;100.00
10638;BME280;47007;49.252;8.904;2023-06-10T03:03:12;99418.91;;;18.01;100.00
10638;BME280;47007;49.252;8.904;2023-06-10T03:04:04;99415.75;;;18.04;100.00
10638;BME280;47007;49.252;8.904;2023-06-10T03:04:47;99416.28;;;18.06;100.00
10638;BME280;47007;49.252;8.904;2023-06-10T03:05:33;99414.19;;;18.08;100.00
10638;BME280;47007;49.252;8.904;2023-06-10T03:06:18;99413.94;;;18.09;100.00
10638;BME280;47007;49.252;8.904;2023-06-10T03:07:00;99409.06;;;18.06;100.00
10638;BME280;47007;49.252;8.904;2023-06-10T03:07:47;99382.31;;;17.94;100.00
10638;BME280;47007;49.252;8.904;2023-06-10T03:08:30;99419.41;;;18.14;100.00
10638;BME280;47007;49.252;8.904;2023-06-10T03:09:14;99412.50;;;18.18;100.00
10638;BME280;47007;49.252;8.904;2023-06-10T03:09:58;99414.69;;;18.21;100.00
10638;BME280;47007;49.252;8.904;2023-06-10T03:10:40;99418.53;;;18.25;100.00
10638;BME280;47007;49.252;8.904;2023-06-10T03:11:23;99416.19;;;18.29;100.00
10638;BME280;47007;49.252;8.904;2023-06-10T03:12:05;99418.59;;;18.30;100.00
10638;BME280;47007;49.252;8.904;2023-06-10T03:12:53;99413.81;;;18.33;100.00
10638;BME280;47007;49.252;8.904;2023-06-10T03:13:36;99413.22;;;18.30;100.00
10638;BME280;47007;49.252;8.904;2023-06-10T03:14:17;99417.88;;;18.35;100.00
10638;BME280;47007;49.252;8.904;2023-06-10T03:14:59;99398.34;;;18.23;100.00
10638;BME280;47007;49.252;8.904;2023-06-10T03:15:44;99419.97;;;18.33;100.00
10638;BME280;47007;49.252;8.904;2023-06-10T03:16:31;99411.63;;;18.29;100.00
10638;BME280;47007;49.252;8.904;2023-06-10T03:17:14;99423.47;;;18.34;100.00
10638;BME280;47007;49.252;8.904;2023-06-10T03:17:57;99393.97;;;18.17;100.00
10638;BME280;47007;49.252;8.904;2023-06-10T03:18:39;99422.66;;;18.33;100.00
10638;BME280;47007;49.252;8.904;2023-06-10T03:19:22;99429.91;;;18.33;100.00
10638;BME280;47007;49.252;8.904;2023-06-10T03:20:07;99424.53;;;18.33;100.00
10638;BME280;47007;49.252;8.904;2023-06-10T03:20:54;99435.25;;;18.33;100.00
10638;BME280;47007;49.252;8.904;2023-06-10T03:21:37;99416.91;;;18.24;100.00
10638;BME280;47007;49.252;8.904;2023-06-10T03:22:19;99430.94;;;18.31;100.00
10638;BME280;47007;49.252;8.904;2023-06-10T03:23:13;99425.34;;;18.33;100.00
10638;BME280;47007;49.252;8.904;2023-06-10T03:23:54;99433.41;;;18.33;100.00
10638;BME280;47007;49.252;8.904;2023-06-10T03:24:36;99426.97;;;18.34;100.00
10638;BME280;47007;49.252;8.904;2023-06-10T03:25:23;99435.03;;;18.34;100.00
10638;BME280;47007;49.252;8.904;2023-06-10T03:26:07;99429.41;;;18.36;100.00
10638;BME280;47007;49.252;8.904;2023-06-10T03:26:51;99407.47;;;18.22;100.00
10638;BME280;47007;49.252;8.904;2023-06-10T03:27:33;99432.09;;;18.36;100.00
10638;BME280;47007;49.252;8.904;2023-06-10T03:28:19;99435.03;;;18.34;100.00
10638;BME280;47007;49.252;8.904;2023-06-10T03:29:02;99430.41;;;18.29;100.00
10638;BME280;47007;49.252;8.904;2023-06-10T03:29:45;99433.41;;;18.33;100.00
10638;BME280;47007;49.252;8.904;2023-06-10T03:30:27;99429.09;;;18.32;100.00
10638;BME280;47007;49.252;8.904;2023-06-10T03:31:10;99441.69;;;18.31;100.00
10638;BME280;47007;49.252;8.904;2023-06-10T03:31:52;99432.00;;;18.30;100.00
10638;BME280;47007;49.252;8.904;2023-06-10T03:32:34;99425.53;;;18.26;100.00
10638;BME280;47007;49.252;8.904;2023-06-10T03:33:17;99416.31;;;18.22;100.00
10638;BME280;47007;49.252;8.904;2023-06-10T03:33:59;99433.34;;;18.28;100.00
10638;BME280;47007;49.252;8.904;2023-06-10T03:34:41;99435.78;;;18.29;100.00
10638;BME280;47007;49.252;8.904;2023-06-10T03:35:23;99428.78;;;18.28;100.00
10638;BME280;47007;49.252;8.904;2023-06-10T03:36:05;99434.16;;;18.28;100.00
10638;BME280;47007;49.252;8.904;2023-06-10T03:36:48;99435.19;;;18.27;100.00
10638;BME280;47007;49.252;8.904;2023-06-10T03:37:30;99444.31;;;18.26;100.00
10638;BME280;47007;49.252;8.904;2023-06-10T03:38:12;99440.81;;;18.26;100.00
10638;BME280;47007;49.252;8.904;2023-06-10T03:38:54;99378.97;;;17.87;100.00
10638;BME280;47007;49.252;8.904;2023-06-10T03:39:38;99427.78;;;18.18;100.00
10638;BME280;47007;49.252;8.904;2023-06-10T03:40:20;99421.28;;;18.14;100.00
10638;BME280;47007;49.252;8.904;2023-06-10T03:41:05;99425.59;;;18.15;100.00
10638;BME280;47007;49.252;8.904;2023-06-10T03:41:47;99427.78;;;18.18;100.00
10638;BME280;47007;49.252;8.904;2023-06-10T03:42:29;99383.53;;;17.87;100.00
10638;BME280;47007;49.252;8.904;2023-06-10T03:43:11;99428.59;;;18.18;100.00
10638;BME280;47007;49.252;8.904;2023-06-10T03:43:52;99390.84;;;17.91;100.00
10638;BME280;47007;49.252;8.904;2023-06-10T03:44:34;99441.28;;;18.23;100.00
10638;BME280;47007;49.252;8.904;2023-06-10T03:45:16;99430.72;;;18.16;100.00
10638;BME280;47007;49.252;8.904;2023-06-10T03:45:59;99443.38;;;18.21;100.00
10638;BME280;47007;49.252;8.904;2023-06-10T03:46:41;99433.94;;;18.18;100.00
10638;BME280;47007;49.252;8.904;2023-06-10T03:47:23;99419.25;;;18.04;100.00
10638;BME280;47007;49.252;8.904;2023-06-10T03:48:06;99428.41;;;18.08;100.00
10638;BME280;47007;49.252;8.904;2023-06-10T03:48:57;99390.75;;;17.86;100.00